Terminal Aerodrome Forecast
Issued by NWS

Home | Current Version | Previous Version | Text Only | Print | Product List | Glossary On
Versions: 1 2 3 4 5 6 7 8 9 10 11 12 13 14 15 16 17 18 19 20 21 22 23 24 25
000
FTUS45 KTFX 302321 CCA
TAFLWT
TAF COR
KLWT 302321Z 3100/3124 28008KT P6SM VCSH SCT060 BKN120
      TEMPO 3100/3101 VRB30G40KT -TSRA OVC060CB
     FM310200 29018G25KT P6SM VCSH BKN100
     FM310800 24012KT P6SM SKC
     FM311700 27011G18KT P6SM SCT250=

USA.gov is the U.S. government's official web portal to all federal, state and local government web resources and services.